sensor_id;sensor_type;location;lat;lon;timestamp;P1;durP1;ratioP1;P2;durP2;ratioP2
12048;SDS011;6085;49.452;8.502;2023-06-14T00:03:44;5.13;;;3.80;;
12048;SDS011;6085;49.452;8.502;2023-06-14T00:07:47;4.25;;;3.85;;
12048;SDS011;6085;49.452;8.502;2023-06-14T00:11:50;7.53;;;3.70;;
12048;SDS011;6085;49.452;8.502;2023-06-14T00:15:52;4.60;;;3.22;;
12048;SDS011;6085;49.452;8.502;2023-06-14T00:19:55;4.13;;;3.20;;
12048;SDS011;6085;49.452;8.502;2023-06-14T00:23:58;3.60;;;3.30;;
12048;SDS011;6085;49.452;8.502;2023-06-14T00:28:02;4.63;;;3.72;;
12048;SDS011;6085;49.452;8.502;2023-06-14T00:32:04;4.13;;;2.97;;
12048;SDS011;6085;49.452;8.502;2023-06-14T00:36:07;4.85;;;3.55;;
12048;SDS011;6085;49.452;8.502;2023-06-14T00:40:09;3.70;;;3.40;;
12048;SDS011;6085;49.452;8.502;2023-06-14T00:44:13;3.47;;;3.17;;
12048;SDS011;6085;49.452;8.502;2023-06-14T00:48:18;3.92;;;3.53;;
12048;SDS011;6085;49.452;8.502;2023-06-14T00:52:20;6.10;;;3.70;;
12048;SDS011;6085;49.452;8.502;2023-06-14T00:56:24;4.22;;;3.83;;
12048;SDS011;6085;49.452;8.502;2023-06-14T01:00:29;3.80;;;3.42;;
12048;SDS011;6085;49.452;8.502;2023-06-14T01:04:31;4.03;;;3.60;;
12048;SDS011;6085;49.452;8.502;2023-06-14T01:08:37;4.30;;;3.90;;
12048;SDS011;6085;49.452;8.502;2023-06-14T01:12:47;4.10;;;3.70;;
12048;SDS011;6085;49.452;8.502;2023-06-14T01:17:00;4.70;;;4.25;;
12048;SDS011;6085;49.452;8.502;2023-06-14T01:21:03;4.57;;;4.18;;
12048;SDS011;6085;49.452;8.502;2023-06-14T01:25:07;4.68;;;4.28;;
12048;SDS011;6085;49.452;8.502;2023-06-14T01:29:09;5.05;;;4.55;;
12048;SDS011;6085;49.452;8.502;2023-06-14T01:33:11;5.35;;;4.40;;
12048;SDS011;6085;49.452;8.502;2023-06-14T01:37:14;4.88;;;4.47;;
12048;SDS011;6085;49.452;8.502;2023-06-14T01:41:19;5.35;;;4.63;;
12048;SDS011;6085;49.452;8.502;2023-06-14T01:45:23;5.55;;;5.03;;
12048;SDS011;6085;49.452;8.502;2023-06-14T01:49:25;4.50;;;4.10;;
12048;SDS011;6085;49.452;8.502;2023-06-14T01:53:28;5.47;;;4.32;;
12048;SDS011;6085;49.452;8.502;2023-06-14T01:57:31;4.40;;;4.00;;
12048;SDS011;6085;49.452;8.502;2023-06-14T02:01:33;5.22;;;4.72;;
12048;SDS011;6085;49.452;8.502;2023-06-14T02:05:36;5.15;;;4.65;;
12048;SDS011;6085;49.452;8.502;2023-06-14T02:09:39;5.07;;;4.68;;
12048;SDS011;6085;49.452;8.502;2023-06-14T02:13:43;6.25;;;4.97;;
12048;SDS011;6085;49.452;8.502;2023-06-14T02:17:45;4.57;;;4.10;;
12048;SDS011;6085;49.452;8.502;2023-06-14T02:21:49;5.65;;;4.45;;
12048;SDS011;6085;49.452;8.502;2023-06-14T02:25:51;4.95;;;4.60;;
12048;SDS011;6085;49.452;8.502;2023-06-14T02:29:54;5.30;;;4.80;;
12048;SDS011;6085;49.452;8.502;2023-06-14T02:33:56;4.53;;;4.13;;
12048;SDS011;6085;49.452;8.502;2023-06-14T02:37:58;5.82;;;4.07;;
12048;SDS011;6085;49.452;8.502;2023-06-14T02:42:00;5.00;;;4.50;;
12048;SDS011;6085;49.452;8.502;2023-06-14T02:46:04;5.28;;;4.80;;
12048;SDS011;6085;49.452;8.502;2023-06-14T02:50:07;7.13;;;5.22;;
12048;SDS011;6085;49.452;8.502;2023-06-14T02:54:10;5.97;;;5.38;;
12048;SDS011;6085;49.452;8.502;2023-06-14T02:58:11;6.07;;;5.50;;
12048;SDS011;6085;49.452;8.502;2023-06-14T03:02:15;5.80;;;5.20;;
12048;SDS011;6085;49.452;8.502;2023-06-14T03:06:17;5.95;;;5.43;;
12048;SDS011;6085;49.452;8.502;2023-06-14T03:10:19;6.03;;;5.43;;
12048;SDS011;6085;49.452;8.502;2023-06-14T03:14:22;5.68;;;5.10;;
12048;SDS011;6085;49.452;8.502;2023-06-14T03:18:25;6.93;;;4.70;;
12048;SDS011;6085;49.452;8.502;2023-06-14T03:22:27;5.35;;;4.85;;
12048;SDS011;6085;49.452;8.502;2023-06-14T03:26:29;6.88;;;5.68;;
12048;SDS011;6085;49.452;8.502;2023-06-14T03:30:34;5.60;;;4.97;;
12048;SDS011;6085;49.452;8.502;2023-06-14T03:34:37;6.97;;;5.20;;
12048;SDS011;6085;49.452;8.502;2023-06-14T03:38:40;6.40;;;5.28;;
12048;SDS011;6085;49.452;8.502;2023-06-14T03:42:42;6.45;;;5.10;;
12048;SDS011;6085;49.452;8.502;2023-06-14T03:46:44;5.80;;;5.20;;
12048;SDS011;6085;49.452;8.502;2023-06-14T03:50:47;5.72;;;5.13;;
12048;SDS011;6085;49.452;8.502;2023-06-14T03:54:50;6.13;;;5.25;;
12048;SDS011;6085;49.452;8.502;2023-06-14T03:58:51;6.53;;;5.70;;
12048;SDS011;6085;49.452;8.502;2023-06-14T04:02:53;5.60;;;5.10;;
12048;SDS011;6085;49.452;8.502;2023-06-14T04:06:57;5.68;;;5.18;;
12048;SDS011;6085;49.452;8.502;2023-06-14T04:11:00;7.25;;;4.78;;
12048;SDS011;6085;49.452;8.502;2023-06-14T04:15:03;5.57;;;5.07;;
12048;SDS011;6085;49.452;8.502;2023-06-14T04:19:06;5.72;;;5.22;;
12048;SDS011;6085;49.452;8.502;2023-06-14T04:23:13;5.80;;;5.30;;
12048;SDS011;6085;49.452;8.502;2023-06-14T04:27:18;5.35;;;4.65;;
12048;SDS011;6085;49.452;8.502;2023-06-14T04:31:21;5.30;;;4.47;;
12048;SDS011;6085;49.452;8.502;2023-06-14T04:35:25;5.75;;;4.80;;
12048;SDS011;6085;49.452;8.502;2023-06-14T04:39:28;5.90;;;4.72;;
12048;SDS011;6085;49.452;8.502;2023-06-14T04:43:31;5.15;;;4.10;;
12048;SDS011;6085;49.452;8.502;2023-06-14T04:47:38;5.05;;;3.85;;
12048;SDS011;6085;49.452;8.502;2023-06-14T04:51:40;5.07;;;4.47;;
12048;SDS011;6085;49.452;8.502;2023-06-14T04:55:44;7.15;;;4.10;;
12048;SDS011;6085;49.452;8.502;2023-06-14T04:59:46;5.30;;;3.70;;
12048;SDS011;6085;49.452;8.502;2023-06-14T05:03:48;4.53;;;4.13;;
12048;SDS011;6085;49.452;8.502;2023-06-14T05:07:50;5.97;;;4.10;;
12048;SDS011;6085;49.452;8.502;2023-06-14T05:11:54;5.20;;;4.55;;
12048;SDS011;6085;49.452;8.502;2023-06-14T05:15:56;5.55;;;4.10;;
12048;SDS011;6085;49.452;8.502;2023-06-14T05:19:58;4.43;;;4.03;;
12048;SDS011;6085;49.452;8.502;2023-06-14T05:24:00;5.07;;;4.10;;
12048;SDS011;6085;49.452;8.502;2023-06-14T05:28:03;4.13;;;3.70;;
12048;SDS011;6085;49.452;8.502;2023-06-14T05:32:06;4.60;;;4.18;;
12048;SDS011;6085;49.452;8.502;2023-06-14T05:36:08;6.13;;;3.85;;
12048;SDS011;6085;49.452;8.502;2023-06-14T05:40:11;5.70;;;4.60;;
12048;SDS011;6085;49.452;8.502;2023-06-14T05:44:14;5.35;;;4.03;;
12048;SDS011;6085;49.452;8.502;2023-06-14T05:48:16;4.38;;;3.97;;
12048;SDS011;6085;49.452;8.502;2023-06-14T05:52:21;5.20;;;4.10;;
12048;SDS011;6085;49.452;8.502;2023-06-14T05:56:23;4.88;;;4.13;;
12048;SDS011;6085;49.452;8.502;2023-06-14T06:00:27;4.88;;;4.00;;
12048;SDS011;6085;49.452;8.502;2023-06-14T06:04:29;4.35;;;3.85;;
12048;SDS011;6085;49.452;8.502;2023-06-14T06:08:31;8.05;;;4.55;;
12048;SDS011;6085;49.452;8.502;2023-06-14T06:12:35;5.05;;;4.00;;
12048;SDS011;6085;49.452;8.502;2023-06-14T06:16:38;4.72;;;3.10;;
12048;SDS011;6085;49.452;8.502;2023-06-14T06:20:40;5.43;;;3.80;;
12048;SDS011;6085;49.452;8.502;2023-06-14T06:24:44;4.03;;;3.50;;
12048;SDS011;6085;49.452;8.502;2023-06-14T06:28:46;4.78;;;3.60;;
12048;SDS011;6085;49.452;8.502;2023-06-14T06:32:49;3.85;;;3.40;;
12048;SDS011;6085;49.452;8.502;2023-06-14T06:36:51;3.42;;;3.13;;
12048;SDS011;6085;49.452;8.502;2023-06-14T06:40:53;4.13;;;3.20;;
12048;SDS011;6085;49.452;8.502;2023-06-14T06:44:56;3.40;;;3.20;;
12048;SDS011;6085;49.452;8.502;2023-06-14T06:49:00;4.28;;;3.53;;
12048;SDS011;6085;49.452;8.502;2023-06-14T06:53:02;5.05;;;3.63;;
12048;SDS011;6085;49.452;8.502;2023-06-14T06:57:04;4.68;;;3.30;;
12048;SDS011;6085;49.452;8.502;2023-06-14T07:01:07;4.88;;;3.58;;
12048;SDS011;6085;49.452;8.502;2023-06-14T07:05:11;4.28;;;3.47;;
12048;SDS011;6085;49.452;8.502;2023-06-14T07:09:13;3.83;;;3.20;;
12048;SDS011;6085;49.452;8.502;2023-06-14T07:13:16;3.60;;;3.30;;
12048;SDS011;6085;49.452;8.502;2023-06-14T07:17:18;4.40;;;3.53;;
12048;SDS011;6085;49.452;8.502;2023-06-14T07:21:21;3.53;;;2.85;;
12048;SDS011;6085;49.452;8.502;2023-06-14T07:25:25;3.35;;;2.97;;
12048;SDS011;6085;49.452;8.502;2023-06-14T07:29:27;6.18;;;3.55;;
12048;SDS011;6085;49.452;8.502;2023-06-14T07:33:29;3.85;;;3.40;;
12048;SDS011;6085;49.452;8.502;2023-06-14T07:37:36;6.45;;;3.53;;
12048;SDS011;6085;49.452;8.502;2023-06-14T07:41:38;4.32;;;3.20;;
12048;SDS011;6085;49.452;8.502;2023-06-14T07:45:40;4.20;;;3.00;;
12048;SDS011;6085;49.452;8.502;2023-06-14T07:49:42;4.03;;;2.90;;
12048;SDS011;6085;49.452;8.502;2023-06-14T07:53:46;4.90;;;2.92;;
12048;SDS011;6085;49.452;8.502;2023-06-14T07:57:48;3.05;;;2.80;;
12048;SDS011;6085;49.452;8.502;2023-06-14T08:01:50;4.45;;;3.00;;
12048;SDS011;6085;49.452;8.502;2023-06-14T08:05:52;5.90;;;3.10;;
12048;SDS011;6085;49.452;8.502;2023-06-14T08:09:55;5.45;;;3.13;;
12048;SDS011;6085;49.452;8.502;2023-06-14T08:13:57;3.60;;;2.90;;
12048;SDS011;6085;49.452;8.502;2023-06-14T08:17:59;3.88;;;2.80;;
12048;SDS011;6085;49.452;8.502;2023-06-14T08:22:02;3.25;;;2.95;;
12048;SDS011;6085;49.452;8.502;2023-06-14T08:26:06;2.90;;;2.70;;
12048;SDS011;6085;49.452;8.502;2023-06-14T08:30:08;3.30;;;3.00;;
12048;SDS011;6085;49.452;8.502;2023-06-14T08:34:11;4.13;;;2.85;;
12048;SDS011;6085;49.452;8.502;2023-06-14T08:38:13;3.70;;;2.78;;
12048;SDS011;6085;49.452;8.502;2023-06-14T08:42:17;4.50;;;3.08;;
12048;SDS011;6085;49.452;8.502;2023-06-14T08:46:22;5.38;;;2.60;;
12048;SDS011;6085;49.452;8.502;2023-06-14T08:50:27;3.63;;;2.90;;
12048;SDS011;6085;49.452;8.502;2023-06-14T08:54:31;3.83;;;2.60;;
12048;SDS011;6085;49.452;8.502;2023-06-14T08:58:37;3.13;;;2.60;;
12048;SDS011;6085;49.452;8.502;2023-06-14T09:02:43;4.00;;;2.70;;
12048;SDS011;6085;49.452;8.502;2023-06-14T09:06:45;8.23;;;2.90;;
12048;SDS011;6085;49.452;8.502;2023-06-14T09:10:52;5.00;;;3.05;;
12048;SDS011;6085;49.452;8.502;2023-06-14T09:14:56;3.70;;;2.42;;
12048;SDS011;6085;49.452;8.502;2023-06-14T09:18:58;2.67;;;2.47;;
12048;SDS011;6085;49.452;8.502;2023-06-14T09:23:00;3.90;;;2.22;;
12048;SDS011;6085;49.452;8.502;2023-06-14T09:27:02;3.38;;;2.72;;
12048;SDS011;6085;49.452;8.502;2023-06-14T09:31:07;3.30;;;2.80;;
12048;SDS011;6085;49.452;8.502;2023-06-14T09:35:09;3.17;;;2.63;;
12048;SDS011;6085;49.452;8.502;2023-06-14T09:39:12;3.85;;;2.75;;
12048;SDS011;6085;49.452;8.502;2023-06-14T09:43:18;3.40;;;3.10;;
12048;SDS011;6085;49.452;8.502;2023-06-14T09:47:24;3.92;;;2.70;;
12048;SDS011;6085;49.452;8.502;2023-06-14T09:51:26;2.83;;;2.58;;
12048;SDS011;6085;49.452;8.502;2023-06-14T09:55:30;2.70;;;2.50;;
12048;SDS011;6085;49.452;8.502;2023-06-14T09:59:36;3.08;;;2.85;;
12048;SDS011;6085;49.452;8.502;2023-06-14T10:03:43;3.25;;;2.50;;
12048;SDS011;6085;49.452;8.502;2023-06-14T10:07:48;2.78;;;2.50;;
12048;SDS011;6085;49.452;8.502;2023-06-14T10:11:53;3.60;;;2.75;;
12048;SDS011;6085;49.452;8.502;2023-06-14T10:15:58;3.05;;;2.85;;
12048;SDS011;6085;49.452;8.502;2023-06-14T10:20:14;3.30;;;3.00;;
12048;SDS011;6085;49.452;8.502;2023-06-14T10:24:24;3.72;;;2.70;;
12048;SDS011;6085;49.452;8.502;2023-06-14T10:28:31;3.22;;;2.42;;
12048;SDS011;6085;49.452;8.502;2023-06-14T10:32:35;4.30;;;2.80;;
12048;SDS011;6085;49.452;8.502;2023-06-14T10:37:01;3.63;;;2.95;;
12048;SDS011;6085;49.452;8.502;2023-06-14T10:41:04;3.63;;;2.85;;
12048;SDS011;6085;49.452;8.502;2023-06-14T10:45:08;3.00;;;2.72;;
12048;SDS011;6085;49.452;8.502;2023-06-14T10:49:15;3.95;;;2.88;;
12048;SDS011;6085;49.452;8.502;2023-06-14T10:53:23;6.72;;;3.15;;
12048;SDS011;6085;49.452;8.502;2023-06-14T10:57:25;3.00;;;2.72;;
12048;SDS011;6085;49.452;8.502;2023-06-14T11:01:35;3.00;;;2.80;;
12048;SDS011;6085;49.452;8.502;2023-06-14T11:05:41;3.22;;;2.90;;
12048;SDS011;6085;49.452;8.502;2023-06-14T11:09:54;3.22;;;3.00;;
12048;SDS011;6085;49.452;8.502;2023-06-14T11:14:06;3.90;;;2.90;;
12048;SDS011;6085;49.452;8.502;2023-06-14T11:18:08;4.03;;;2.70;;
12048;SDS011;6085;49.452;8.502;2023-06-14T11:22:10;2.83;;;2.63;;
12048;SDS011;6085;49.452;8.502;2023-06-14T11:26:16;2.50;;;2.30;;
12048;SDS011;6085;49.452;8.502;2023-06-14T11:30:26;3.72;;;2.60;;
12048;SDS011;6085;49.452;8.502;2023-06-14T11:34:28;2.92;;;2.50;;
12048;SDS011;6085;49.452;8.502;2023-06-14T11:38:30;3.05;;;2.53;;
12048;SDS011;6085;49.452;8.502;2023-06-14T11:42:37;2.92;;;2.60;;
12048;SDS011;6085;49.452;8.502;2023-06-14T11:46:40;2.95;;;2.65;;
12048;SDS011;6085;49.452;8.502;2023-06-14T11:50:42;3.15;;;2.58;;
12048;SDS011;6085;49.452;8.502;2023-06-14T11:54:44;2.70;;;2.50;;
12048;SDS011;6085;49.452;8.502;2023-06-14T11:58:51;3.10;;;2.80;;
12048;SDS011;6085;49.452;8.502;2023-06-14T12:02:56;4.97;;;2.60;;
12048;SDS011;6085;49.452;8.502;2023-06-14T12:07:08;2.83;;;2.53;;
12048;SDS011;6085;49.452;8.502;2023-06-14T12:11:12;3.08;;;2.78;;
12048;SDS011;6085;49.452;8.502;2023-06-14T12:15:16;3.28;;;2.97;;
12048;SDS011;6085;49.452;8.502;2023-06-14T12:19:19;4.13;;;2.95;;
12048;SDS011;6085;49.452;8.502;2023-06-14T12:23:44;4.22;;;2.78;;
12048;SDS011;6085;49.452;8.502;2023-06-14T12:27:48;3.10;;;2.90;;
12048;SDS011;6085;49.452;8.502;2023-06-14T12:31:52;3.05;;;2.85;;
12048;SDS011;6085;49.452;8.502;2023-06-14T12:35:56;2.92;;;2.60;;
12048;SDS011;6085;49.452;8.502;2023-06-14T12:39:58;2.78;;;2.58;;
12048;SDS011;6085;49.452;8.502;2023-06-14T12:44:00;2.85;;;2.63;;
12048;SDS011;6085;49.452;8.502;2023-06-14T12:48:05;3.63;;;2.90;;
12048;SDS011;6085;49.452;8.502;2023-06-14T12:52:09;3.58;;;3.05;;
12048;SDS011;6085;49.452;8.502;2023-06-14T12:56:11;3.13;;;2.92;;
12048;SDS011;6085;49.452;8.502;2023-06-14T13:00:13;2.55;;;2.25;;
12048;SDS011;6085;49.452;8.502;2023-06-14T13:04:19;2.65;;;2.45;;
12048;SDS011;6085;49.452;8.502;2023-06-14T13:08:21;3.40;;;3.10;;
12048;SDS011;6085;49.452;8.502;2023-06-14T13:12:23;3.22;;;2.97;;
12048;SDS011;6085;49.452;8.502;2023-06-14T13:16:24;4.03;;;3.03;;
12048;SDS011;6085;49.452;8.502;2023-06-14T13:20:28;3.47;;;2.60;;
12048;SDS011;6085;49.452;8.502;2023-06-14T13:24:30;2.90;;;2.70;;
12048;SDS011;6085;49.452;8.502;2023-06-14T13:28:32;3.25;;;2.92;;
12048;SDS011;6085;49.452;8.502;2023-06-14T13:32:35;3.00;;;2.70;;
12048;SDS011;6085;49.452;8.502;2023-06-14T13:36:38;2.70;;;2.47;;
12048;SDS011;6085;49.452;8.502;2023-06-14T13:40:40;2.78;;;2.58;;
12048;SDS011;6085;49.452;8.502;2023-06-14T13:44:42;2.88;;;2.65;;
12048;SDS011;6085;49.452;8.502;2023-06-14T13:48:44;2.95;;;2.72;;
12048;SDS011;6085;49.452;8.502;2023-06-14T13:52:49;3.25;;;2.95;;
12048;SDS011;6085;49.452;8.502;2023-06-14T13:56:51;3.13;;;2.90;;
12048;SDS011;6085;49.452;8.502;2023-06-14T14:00:53;3.50;;;3.20;;
12048;SDS011;6085;49.452;8.502;2023-06-14T14:04:55;4.05;;;2.92;;
12048;SDS011;6085;49.452;8.502;2023-06-14T14:08:58;3.53;;;3.03;;
12048;SDS011;6085;49.452;8.502;2023-06-14T14:13:00;3.55;;;3.25;;
12048;SDS011;6085;49.452;8.502;2023-06-14T14:17:03;3.20;;;2.90;;
12048;SDS011;6085;49.452;8.502;2023-06-14T14:21:05;3.67;;;3.33;;
12048;SDS011;6085;49.452;8.502;2023-06-14T14:25:09;3.83;;;2.90;;
12048;SDS011;6085;49.452;8.502;2023-06-14T14:29:11;3.08;;;2.80;;
12048;SDS011;6085;49.452;8.502;2023-06-14T14:33:13;3.33;;;3.03;;
12048;SDS011;6085;49.452;8.502;2023-06-14T14:37:17;3.55;;;3.08;;
12048;SDS011;6085;49.452;8.502;2023-06-14T14:41:22;3.10;;;2.90;;
12048;SDS011;6085;49.452;8.502;2023-06-14T14:45:24;3.40;;;3.10;;
12048;SDS011;6085;49.452;8.502;2023-06-14T14:49:26;3.63;;;3.28;;
12048;SDS011;6085;49.452;8.502;2023-06-14T14:53:28;3.75;;;3.00;;
12048;SDS011;6085;49.452;8.502;2023-06-14T14:57:32;3.50;;;3.20;;
12048;SDS011;6085;49.452;8.502;2023-06-14T15:01:34;3.45;;;2.97;;
12048;SDS011;6085;49.452;8.502;2023-06-14T15:05:36;5.10;;;3.05;;
12048;SDS011;6085;49.452;8.502;2023-06-14T15:09:38;3.67;;;3.33;;
12048;SDS011;6085;49.452;8.502;2023-06-14T15:13:41;3.00;;;2.80;;
12048;SDS011;6085;49.452;8.502;2023-06-14T15:17:43;3.90;;;3.13;;
12048;SDS011;6085;49.452;8.502;2023-06-14T15:21:45;3.67;;;2.97;;
12048;SDS011;6085;49.452;8.502;2023-06-14T15:25:47;3.13;;;2.92;;
12048;SDS011;6085;49.452;8.502;2023-06-14T15:29:51;3.05;;;2.85;;
12048;SDS011;6085;49.452;8.502;2023-06-14T15:33:53;3.50;;;3.20;;
12048;SDS011;6085;49.452;8.502;2023-06-14T15:37:55;3.80;;;3.10;;
12048;SDS011;6085;49.452;8.502;2023-06-14T15:41:57;3.58;;;3.28;;
12048;SDS011;6085;49.452;8.502;2023-06-14T15:46:01;3.30;;;3.00;;
12048;SDS011;6085;49.452;8.502;2023-06-14T15:50:05;3.28;;;2.97;;
12048;SDS011;6085;49.452;8.502;2023-06-14T15:54:08;3.63;;;2.90;;
12048;SDS011;6085;49.452;8.502;2023-06-14T15:58:10;3.05;;;2.65;;
12048;SDS011;6085;49.452;8.502;2023-06-14T16:02:14;2.75;;;2.55;;
12048;SDS011;6085;49.452;8.502;2023-06-14T16:06:16;2.97;;;2.78;;
12048;SDS011;6085;49.452;8.502;2023-06-14T16:10:18;3.58;;;2.85;;
12048;SDS011;6085;49.452;8.502;2023-06-14T16:14:20;3.20;;;2.90;;
12048;SDS011;6085;49.452;8.502;2023-06-14T16:18:24;3.22;;;2.92;;
12048;SDS011;6085;49.452;8.502;2023-06-14T16:22:28;3.63;;;3.15;;
12048;SDS011;6085;49.452;8.502;2023-06-14T16:26:30;3.30;;;3.00;;
12048;SDS011;6085;49.452;8.502;2023-06-14T16:30:33;3.05;;;2.80;;
12048;SDS011;6085;49.452;8.502;2023-06-14T16:34:36;3.42;;;3.00;;
12048;SDS011;6085;49.452;8.502;2023-06-14T16:38:38;4.82;;;2.60;;
12048;SDS011;6085;49.452;8.502;2023-06-14T16:42:43;3.92;;;2.50;;
12048;SDS011;6085;49.452;8.502;2023-06-14T16:46:45;5.03;;;2.97;;
12048;SDS011;6085;49.452;8.502;2023-06-14T16:50:49;3.65;;;2.65;;
12048;SDS011;6085;49.452;8.502;2023-06-14T16:54:51;2.90;;;2.70;;
12048;SDS011;6085;49.452;8.502;2023-06-14T16:58:55;2.92;;;2.72;;
12048;SDS011;6085;49.452;8.502;2023-06-14T17:02:57;2.95;;;2.70;;
12048;SDS011;6085;49.452;8.502;2023-06-14T17:07:01;3.10;;;2.78;;
12048;SDS011;6085;49.452;8.502;2023-06-14T17:11:04;3.30;;;3.00;;
12048;SDS011;6085;49.452;8.502;2023-06-14T17:15:07;2.80;;;2.60;;
12048;SDS011;6085;49.452;8.502;2023-06-14T17:19:10;2.90;;;2.70;;
12048;SDS011;6085;49.452;8.502;2023-06-14T17:23:14;3.00;;;2.70;;
12048;SDS011;6085;49.452;8.502;2023-06-14T17:27:16;3.13;;;2.85;;
12048;SDS011;6085;49.452;8.502;2023-06-14T17:31:18;3.78;;;2.70;;
12048;SDS011;6085;49.452;8.502;2023-06-14T17:35:20;2.90;;;2.70;;
12048;SDS011;6085;49.452;8.502;2023-06-14T17:39:25;3.05;;;2.75;;
12048;SDS011;6085;49.452;8.502;2023-06-14T17:43:27;2.65;;;2.50;;
12048;SDS011;6085;49.452;8.502;2023-06-14T17:47:29;3.08;;;2.67;;
12048;SDS011;6085;49.452;8.502;2023-06-14T17:51:31;3.17;;;2.78;;
12048;SDS011;6085;49.452;8.502;2023-06-14T17:55:34;2.50;;;2.30;;
12048;SDS011;6085;49.452;8.502;2023-06-14T17:59:36;3.22;;;2.58;;
12048;SDS011;6085;49.452;8.502;2023-06-14T18:03:38;3.70;;;2.78;;
12048;SDS011;6085;49.452;8.502;2023-06-14T18:07:44;4.03;;;2.60;;
12048;SDS011;6085;49.452;8.502;2023-06-14T18:11:47;3.33;;;2.60;;
12048;SDS011;6085;49.452;8.502;2023-06-14T18:15:49;3.53;;;3.00;;
12048;SDS011;6085;49.452;8.502;2023-06-14T18:19:51;3.10;;;2.55;;
12048;SDS011;6085;49.452;8.502;2023-06-14T18:23:53;3.08;;;2.50;;
12048;SDS011;6085;49.452;8.502;2023-06-14T18:27:57;2.60;;;2.40;;
12048;SDS011;6085;49.452;8.502;2023-06-14T18:31:59;3.45;;;2.47;;
12048;SDS011;6085;49.452;8.502;2023-06-14T18:36:01;2.80;;;2.20;;
12048;SDS011;6085;49.452;8.502;2023-06-14T18:40:03;2.83;;;2.50;;
12048;SDS011;6085;49.452;8.502;2023-06-14T18:44:08;3.35;;;2.50;;
12048;SDS011;6085;49.452;8.502;2023-06-14T18:48:10;2.13;;;2.00;;
12048;SDS011;6085;49.452;8.502;2023-06-14T18:52:12;3.25;;;2.28;;
12048;SDS011;6085;49.452;8.502;2023-06-14T18:56:14;2.50;;;2.40;;
12048;SDS011;6085;49.452;8.502;2023-06-14T19:00:17;2.58;;;2.20;;
12048;SDS011;6085;49.452;8.502;2023-06-14T19:04:19;2.72;;;2.38;;
12048;SDS011;6085;49.452;8.502;2023-06-14T19:08:21;3.13;;;2.65;;
12048;SDS011;6085;49.452;8.502;2023-06-14T19:12:23;3.22;;;2.28;;
12048;SDS011;6085;49.452;8.502;2023-06-14T19:16:27;2.90;;;2.33;;
12048;SDS011;6085;49.452;8.502;2023-06-14T19:20:29;2.30;;;2.05;;
12048;SDS011;6085;49.452;8.502;2023-06-14T19:24:31;2.50;;;2.35;;
12048;SDS011;6085;49.452;8.502;2023-06-14T19:28:33;3.08;;;2.20;;
12048;SDS011;6085;49.452;8.502;2023-06-14T19:32:37;3.22;;;2.40;;
12048;SDS011;6085;49.452;8.502;2023-06-14T19:36:47;2.47;;;2.28;;
12048;SDS011;6085;49.452;8.502;2023-06-14T19:40:49;2.78;;;2.30;;
12048;SDS011;6085;49.452;8.502;2023-06-14T19:44:51;2.80;;;2.60;;
12048;SDS011;6085;49.452;8.502;2023-06-14T19:48:54;3.35;;;2.28;;
12048;SDS011;6085;49.452;8.502;2023-06-14T19:52:56;2.17;;;2.08;;
12048;SDS011;6085;49.452;8.502;2023-06-14T19:56:58;2.40;;;2.20;;
12048;SDS011;6085;49.452;8.502;2023-06-14T20:01:00;3.15;;;2.58;;
12048;SDS011;6085;49.452;8.502;2023-06-14T20:05:03;2.42;;;2.15;;
12048;SDS011;6085;49.452;8.502;2023-06-14T20:09:06;2.70;;;2.50;;
12048;SDS011;6085;49.452;8.502;2023-06-14T20:13:13;2.20;;;2.10;;
12048;SDS011;6085;49.452;8.502;2023-06-14T20:17:15;3.33;;;2.33;;
12048;SDS011;6085;49.452;8.502;2023-06-14T20:21:18;2.90;;;2.10;;
12048;SDS011;6085;49.452;8.502;2023-06-14T20:25:20;2.50;;;2.30;;
12048;SDS011;6085;49.452;8.502;2023-06-14T20:29:22;2.17;;;2.00;;
12048;SDS011;6085;49.452;8.502;2023-06-14T20:33:24;2.75;;;2.30;;
12048;SDS011;6085;49.452;8.502;2023-06-14T20:37:28;2.22;;;2.13;;
12048;SDS011;6085;49.452;8.502;2023-06-14T20:41:29;3.20;;;2.45;;
12048;SDS011;6085;49.452;8.502;2023-06-14T20:45:32;2.40;;;2.30;;
12048;SDS011;6085;49.452;8.502;2023-06-14T20:49:34;2.85;;;2.33;;
12048;SDS011;6085;49.452;8.502;2023-06-14T20:53:38;4.20;;;2.75;;
12048;SDS011;6085;49.452;8.502;2023-06-14T20:57:39;2.33;;;2.15;;
12048;SDS011;6085;49.452;8.502;2023-06-14T21:01:42;3.88;;;2.20;;
12048;SDS011;6085;49.452;8.502;2023-06-14T21:05:44;2.22;;;2.03;;
12048;SDS011;6085;49.452;8.502;2023-06-14T21:09:47;2.72;;;2.30;;
12048;SDS011;6085;49.452;8.502;2023-06-14T21:13:51;2.63;;;2.30;;
12048;SDS011;6085;49.452;8.502;2023-06-14T21:17:56;2.40;;;2.20;;
12048;SDS011;6085;49.452;8.502;2023-06-14T21:21:58;2.50;;;2.17;;
12048;SDS011;6085;49.452;8.502;2023-06-14T21:26:01;2.50;;;2.30;;
12048;SDS011;6085;49.452;8.502;2023-06-14T21:30:03;4.65;;;2.20;;
12048;SDS011;6085;49.452;8.502;2023-06-14T21:34:06;2.50;;;2.30;;
12048;SDS011;6085;49.452;8.502;2023-06-14T21:38:08;2.50;;;2.30;;
12048;SDS011;6085;49.452;8.502;2023-06-14T21:42:13;2.15;;;2.05;;
12048;SDS011;6085;49.452;8.502;2023-06-14T21:46:15;2.53;;;2.33;;
12048;SDS011;6085;49.452;8.502;2023-06-14T21:50:19;2.63;;;2.42;;
12048;SDS011;6085;49.452;8.502;2023-06-14T21:54:24;2.30;;;2.20;;
12048;SDS011;6085;49.452;8.502;2023-06-14T21:58:27;3.05;;;2.30;;
12048;SDS011;6085;49.452;8.502;2023-06-14T22:02:29;2.53;;;2.33;;
12048;SDS011;6085;49.452;8.502;2023-06-14T22:06:31;3.58;;;2.50;;
12048;SDS011;6085;49.452;8.502;2023-06-14T22:10:33;2.78;;;2.40;;
12048;SDS011;6085;49.452;8.502;2023-06-14T22:14:38;2.40;;;2.20;;
12048;SDS011;6085;49.452;8.502;2023-06-14T22:18:41;3.72;;;2.97;;
12048;SDS011;6085;49.452;8.502;2023-06-14T22:22:45;2.33;;;2.13;;
12048;SDS011;6085;49.452;8.502;2023-06-14T22:26:48;2.88;;;2.60;;
12048;SDS011;6085;49.452;8.502;2023-06-14T22:30:57;4.38;;;2.60;;
12048;SDS011;6085;49.452;8.502;2023-06-14T22:34:59;3.10;;;2.47;;
12048;SDS011;6085;49.452;8.502;2023-06-14T22:39:03;4.00;;;2.30;;
12048;SDS011;6085;49.452;8.502;2023-06-14T22:43:05;2.72;;;2.50;;
12048;SDS011;6085;49.452;8.502;2023-06-14T22:47:09;4.53;;;2.47;;
12048;SDS011;6085;49.452;8.502;2023-06-14T22:51:13;2.60;;;2.40;;
12048;SDS011;6085;49.452;8.502;2023-06-14T22:55:16;2.35;;;2.15;;
12048;SDS011;6085;49.452;8.502;2023-06-14T22:59:18;2.55;;;2.35;;
12048;SDS011;6085;49.452;8.502;2023-06-14T23:03:21;2.75;;;2.42;;
12048;SDS011;6085;49.452;8.502;2023-06-14T23:07:24;2.47;;;2.28;;
12048;SDS011;6085;49.452;8.502;2023-06-14T23:11:27;2.75;;;2.53;;
12048;SDS011;6085;49.452;8.502;2023-06-14T23:15:29;4.35;;;2.45;;
12048;SDS011;6085;49.452;8.502;2023-06-14T23:19:33;2.80;;;2.60;;
12048;SDS011;6085;49.452;8.502;2023-06-14T23:23:35;2.75;;;2.55;;
12048;SDS011;6085;49.452;8.502;2023-06-14T23:27:39;2.40;;;2.30;;
12048;SDS011;6085;49.452;8.502;2023-06-14T23:31:41;3.10;;;2.90;;
12048;SDS011;6085;49.452;8.502;2023-06-14T23:35:45;3.75;;;2.70;;
12048;SDS011;6085;49.452;8.502;2023-06-14T23:39:47;3.20;;;2.90;;
12048;SDS011;6085;49.452;8.502;2023-06-14T23:43:50;3.15;;;2.85;;
12048;SDS011;6085;49.452;8.502;2023-06-14T23:47:52;3.17;;;2.95;;
12048;SDS011;6085;49.452;8.502;2023-06-14T23:51:55;3.58;;;3.28;;
12048;SDS011;6085;49.452;8.502;2023-06-14T23:56:01;3.92;;;3.53;;
